Métars Prochent de la station Meteo-Danaklab-Domdidier

Ci-dessous, Les Metars prochent de la station Meteo-Danaklab-Domdidier

Un METAR (METeorological Aerodrome Report1) est un rapport d'observation (et non de prévision) météorologique pour l'aviation. Ce code international a été développé par les membres de l'Organisation de l'aviation civile internationale et est approuvé par l'Organisation météorologique mondiale. Les données de base sont communes à tous les pays mais certaines sections du code sont sujettes à des variantes locales.

Les messages METAR sont mis à jour régulièrement, souvent entre 30 minutes à 60 minutes pendant les heures d'ouverture du terrain, selon son équipement et l'éventualité d'un changement important du temps observé.


LSMP - Payerne (mil/Aut, Switzerland
Distance de la station: NNO 85km
Mise à jour: 20/07/2024 02:50
clair
clair
 Wind from variable
Vent: variable 4 km/h
Température: 19°C
Point de rosée: 17°C
Humidité: 88%
Baromètre: 1016 hPa
Clouds: clair
Visibility: 10 km
2024/07/20 00:50 LSMP 200050Z AUTO VRB02KT 9999NDV NCD 19/17 Q1016 RMK
LSZB - Bern/Belp, Switzerland
Distance de la station: NNE 98km
Mise à jour: 20/07/2024 02:50
clair
clair
 Wind from variable
Vent: variable 2 km/h
Température: 17°C
Point de rosée: 16°C
Humidité: 94%
Baromètre: 1016 hPa
Récapitulatifs: clair
Visibility: supérieure à 10 km
2024/07/20 00:50 LSZB 200050Z AUTO VRB01KT CAVOK 17/16 Q1016
 
LSGG - Geneva/Cointrin, Switzerland
Distance de la station: ONO 81km
Mise à jour: 20/07/2024 02:50
clair
clair
 Wind from variable
Vent: variable 2 km/h
Température: 18°C
Point de rosée: 16°C
Humidité: 88%
Baromètre: 1016 hPa
Récapitulatifs: clair
Visibility: supérieure à 10 km
2024/07/20 00:50 LSGG 200050Z AUTO VRB01KT CAVOK 18/16 Q1016 NOSIG
LFLP - Annecy/Meythet, France
Distance de la station: OSO 83km
Mise à jour: 20/07/2024 03:00
clair
clair
 Wind from NNE
Vent: NNE 4 km/h
Température: 17°C
Point de rosée: 14°C
Humidité: 83%
Baromètre: 1016 hPa
Récapitulatifs: clair
Visibility: supérieure à 10 km
2024/07/20 01:00 LFLP 200100Z AUTO 03002KT CAVOK 17/14 Q1016
 
LSGC - Les Eplatures, Switzerland
Distance de la station: NNO 115km
Mise à jour: 20/07/2024 02:50
clair
clair
 Wind from O
Vent: O 4 km/h
Température: 15°C
Point de rosée: 13°C
Humidité: 88%
Baromètre: 1019 hPa
Récapitulatifs: clair
Visibility: supérieure à 10 km
2024/07/20 00:50 LSGC 200050Z AUTO 26002KT CAVOK 15/13 Q1019
LSGS - Sion (mil/Civ/Au, Switzerland
Distance de la station: NE 22km
Mise à jour: 20/07/2024 02:50
clair
clair
 Wind from calm
Vent: calme
Température: 17°C
Point de rosée: 13°C
Humidité: 77%
Baromètre: 1017 hPa
Récapitulatifs: clair
Visibility: supérieure à 10 km
2024/07/20 00:50 LSGS 200050Z AUTO 00000KT CAVOK 17/13 Q1017
 
LSMS - Sion (mil), Switzerland
Distance de la station: NE 22km
Mise à jour: 27/03/2019 11:50
Pas à jour
clair
clair
 Wind from SO
Vent: SO 7 km/h
Température: 9°C
Wind Chill: 8°C
Point de rosée: -4°C
Humidité: 40%
Baromètre: 1025 hPa
Récapitulatifs: clair
Visibility: supérieure à 10 km
2019/03/27 10:50 LSMS 271050Z 23004KT 200V280 CAVOK 09/M04 Q1025 RMK BLU+
LSMM - Meiringen, Switzerland
Distance de la station: NE 107km
Mise à jour: 20/07/2024 02:50
Quelques Nuages
Quelques Nuages
 Wind from calm
Vent: calme
Température: 17°C
Point de rosée: 16°C
Humidité: 94%
Baromètre: 1017 hPa
Clouds: Quelques Nuages
Visibility: 10 km
Cloud details: Quelques Nuages 2134 m
2024/07/20 00:50 LSMM 200050Z AUTO 00000KT 9999NDV FEW070 17/16 Q1017 RMK
 
LIMW - Aosta Arpt, Italy
Distance de la station: SSE 42km
Mise à jour: 19/07/2024 21:20
Pas à jour
clair
clair
 Wind from ONO
Vent: ONO 9 km/h
Température: 29°C
Point de rosée: 10°C
Humidité: 31%
Baromètre: 1016 hPa
Récapitulatifs: clair
Visibility: supérieure à 10 km
2024/07/19 19:20 LIMW 191920Z 29005KT 250V330 CAVOK 29/10 Q1016
LIMH - Pian Rosa (mtn T, Italy
Distance de la station: ESE 46km
Mise à jour: 20/07/2024 02:55

 Wind from NE
Vent: NE 30 km/h
Température: 1°C
Wind Chill: -5°C
Point de rosée: 0°C
Humidité: 93%
Baromètre: 1031 hPa
2024/07/20 00:55 LIMH 200055Z AUTO 05016KT //// 01/00 Q1031
 
LFLB - Chambery/Aix Bai, France
Distance de la station: OSO 109km
Mise à jour: 20/07/2024 03:00
clair
clair
 Wind from SSE
Vent: SSE 7 km/h
Température: 17°C
Point de rosée: 15°C
Humidité: 88%
Baromètre: 1015 hPa
Récapitulatifs: clair
Visibility: supérieure à 10 km
2024/07/20 01:00 LFLB 200100Z AUTO 16004KT CAVOK 17/15 Q1015
LIMF - Torino/Caselle, Italy
Distance de la station: SSE 103km
Mise à jour: 20/07/2024 02:50
Quelques Nuages
Quelques Nuages
 Wind from N
Vent: N 7 km/h
Température: 21°C
Point de rosée: 17°C
Humidité: 78%
Baromètre: 1015 hPa
Clouds: Quelques Nuages
Visibility: 10 km
Cloud details: Quelques Nuages 1219 m
2024/07/20 00:50 LIMF 200050Z 35004KT 9999 FEW040 21/17 Q1015
 
LIMA - Aeritalia, Italy
Distance de la station: SSE 116km
Mise à jour: 19/07/2024 18:50
Pas à jour
clair
clair
 Wind from variable
Vent: variable 4 km/h
Température: 30°C
Indice de chaleur: 33°C
Point de rosée: 21°C
Humidité: 59%
Baromètre: 1014 hPa
Récapitulatifs: clair
Visibility: supérieure à 10 km
2024/07/19 16:50 LIMA 191650Z VRB02KT CAVOK 30/21 Q1014